createdAt,value
2017-11-09T00:01:56.547Z,6.54
2017-11-09T00:04:29.701Z,6.56
2017-11-09T00:06:57.402Z,6.58
2017-11-09T00:09:25.058Z,6.58
2017-11-09T00:11:52.739Z,6.58
2017-11-09T00:14:20.400Z,6.59
2017-11-09T00:16:48.128Z,6.58
2017-11-09T00:19:15.777Z,6.56
2017-11-09T00:21:43.440Z,6.55
2017-11-09T00:24:11.129Z,6.55
2017-11-09T00:26:38.790Z,6.56
2017-11-09T00:29:06.496Z,6.54
2017-11-09T00:31:34.141Z,6.54
2017-11-09T00:34:01.831Z,6.53
2017-11-09T00:36:29.502Z,6.54
2017-11-09T00:38:57.257Z,6.55
2017-11-09T00:41:24.917Z,6.55
2017-11-09T00:43:52.599Z,6.56
2017-11-09T00:46:20.264Z,6.55
2017-11-09T00:48:47.896Z,6.56
2017-11-09T00:51:15.571Z,6.57
2017-11-09T00:53:44.087Z,6.57
2017-11-09T00:56:11.743Z,6.56
2017-11-09T00:58:39.368Z,6.57
2017-11-09T01:01:06.976Z,6.58
2017-11-09T01:03:34.684Z,6.59
2017-11-09T01:06:02.339Z,6.59
2017-11-09T01:08:30.054Z,6.58
2017-11-09T01:10:57.638Z,6.59
2017-11-09T01:13:25.285Z,6.60
2017-11-09T01:15:52.987Z,6.60
2017-11-09T01:18:20.638Z,6.60
2017-11-09T01:20:48.330Z,6.61
2017-11-09T01:23:15.979Z,6.60
2017-11-09T01:25:43.690Z,6.59
2017-11-09T01:28:11.354Z,6.60
2017-11-09T01:30:39.051Z,6.60
2017-11-09T01:33:06.700Z,6.60
2017-11-09T01:35:34.406Z,6.60
2017-11-09T01:38:02.003Z,6.59
2017-11-09T01:40:29.723Z,6.59
2017-11-09T01:42:57.379Z,6.60
2017-11-09T01:45:25.093Z,6.60
2017-11-09T01:47:52.734Z,6.59
2017-11-09T01:50:20.417Z,6.58
2017-11-09T01:52:48.072Z,6.58
2017-11-09T01:55:15.763Z,6.58
2017-11-09T01:57:43.416Z,6.58
2017-11-09T02:00:11.127Z,6.58
2017-11-09T02:02:38.775Z,6.58
2017-11-09T02:05:06.402Z,6.57
2017-11-09T02:07:34.051Z,6.57
2017-11-09T02:10:01.756Z,6.58
2017-11-09T02:12:29.431Z,6.60
2017-11-09T02:14:57.109Z,6.59
2017-11-09T02:17:24.833Z,6.60
2017-11-09T02:19:52.491Z,6.61
2017-11-09T02:22:20.195Z,6.61
2017-11-09T02:24:47.864Z,6.60
2017-11-09T02:27:15.596Z,6.60
2017-11-09T02:29:43.271Z,6.60
2017-11-09T02:32:11.012Z,6.59
2017-11-09T02:34:38.676Z,6.60
2017-11-09T02:37:06.321Z,6.60
2017-11-09T02:39:34.021Z,6.60
2017-11-09T02:42:01.659Z,6.60
2017-11-09T02:44:29.317Z,6.59
2017-11-09T02:46:57.010Z,6.59
2017-11-09T02:49:24.599Z,6.58
2017-11-09T02:51:52.253Z,6.57
2017-11-09T02:54:30.663Z,6.58
2017-11-09T02:56:59.109Z,6.56
2017-11-09T02:59:27.673Z,6.55
2017-11-09T03:01:55.294Z,6.53
2017-11-09T03:04:22.944Z,6.53
2017-11-09T03:06:50.604Z,6.54
2017-11-09T03:09:18.313Z,6.56
2017-11-09T03:11:45.976Z,6.56
2017-11-09T03:14:13.607Z,6.57
2017-11-09T03:16:41.231Z,6.57
2017-11-09T03:19:08.940Z,6.58
2017-11-09T03:21:36.599Z,6.58
2017-11-09T03:24:04.286Z,6.58
2017-11-09T03:26:31.926Z,6.58
2017-11-09T03:28:59.621Z,6.57
2017-11-09T03:31:27.285Z,6.57
2017-11-09T03:33:54.918Z,6.56
2017-11-09T03:36:22.569Z,6.56
2017-11-09T03:38:50.299Z,6.55
2017-11-09T03:41:17.969Z,6.55
2017-11-09T03:43:45.675Z,6.56
2017-11-09T03:46:13.378Z,6.55
2017-11-09T03:48:41.076Z,6.53
2017-11-09T03:51:08.725Z,6.51
2017-11-09T03:53:36.408Z,6.52
2017-11-09T03:56:04.082Z,6.52
2017-11-09T03:58:31.786Z,6.53
2017-11-09T04:00:59.445Z,6.54
2017-11-09T04:03:27.064Z,6.55
2017-11-09T04:05:54.720Z,6.55
2017-11-09T04:08:22.419Z,6.54
2017-11-09T04:10:50.073Z,6.53
2017-11-09T04:13:17.819Z,6.53
2017-11-09T04:15:45.483Z,6.51
2017-11-09T04:18:13.182Z,6.51
2017-11-09T04:20:40.846Z,6.51
2017-11-09T04:23:08.507Z,6.50
2017-11-09T04:25:36.123Z,6.49
2017-11-09T04:28:03.771Z,6.49
2017-11-09T04:30:31.407Z,6.49
2017-11-09T04:32:59.068Z,6.47
2017-11-09T04:35:26.784Z,6.46
2017-11-09T04:37:54.360Z,6.47
2017-11-09T04:40:22.022Z,6.46
2017-11-09T04:42:49.681Z,6.46
2017-11-09T04:45:17.365Z,6.48
2017-11-09T04:47:45.025Z,6.47
2017-11-09T04:50:12.725Z,6.48
2017-11-09T04:52:40.363Z,6.49
2017-11-09T04:55:08.059Z,6.49
2017-11-09T04:57:35.704Z,6.48
2017-11-09T05:00:03.438Z,6.48
2017-11-09T05:02:31.096Z,6.48
2017-11-09T05:04:58.754Z,6.48
2017-11-09T05:07:26.444Z,6.50
2017-11-09T05:09:54.110Z,6.49
2017-11-09T05:12:21.739Z,6.47
2017-11-09T05:14:49.329Z,6.48
2017-11-09T05:17:16.953Z,6.48
2017-11-09T05:19:44.608Z,6.47
2017-11-09T05:22:12.296Z,6.48
2017-11-09T05:24:39.967Z,6.49
2017-11-09T05:27:07.675Z,6.48
2017-11-09T05:29:35.278Z,6.48
2017-11-09T05:32:02.910Z,6.49
2017-11-09T05:34:30.560Z,6.50
2017-11-09T05:36:58.278Z,6.52
2017-11-09T05:39:25.873Z,6.52
2017-11-09T05:41:53.507Z,6.52
2017-11-09T05:44:21.107Z,6.53
2017-11-09T05:46:48.755Z,6.52
2017-11-09T05:49:16.355Z,6.50
2017-11-09T05:51:44.000Z,6.51
2017-11-09T05:54:11.592Z,6.50
2017-11-09T05:56:39.219Z,6.49
2017-11-09T05:59:06.832Z,6.49
2017-11-09T06:01:34.499Z,6.50
2017-11-09T06:04:02.102Z,6.50
2017-11-09T06:06:29.697Z,6.51
2017-11-09T06:08:57.321Z,6.51
2017-11-09T06:11:24.930Z,6.51
2017-11-09T06:13:52.548Z,6.50
2017-11-09T06:16:20.139Z,6.50
2017-11-09T06:18:47.773Z,6.51
2017-11-09T06:21:15.389Z,6.51
2017-11-09T06:23:43.038Z,6.50
2017-11-09T06:26:10.638Z,6.52
2017-11-09T06:28:38.263Z,6.51
2017-11-09T06:31:05.860Z,6.51
2017-11-09T06:33:33.505Z,6.52
2017-11-09T06:36:01.135Z,6.54
2017-11-09T06:38:28.776Z,6.54
2017-11-09T06:40:56.379Z,6.55
2017-11-09T06:43:24.028Z,6.56
2017-11-09T06:45:51.622Z,6.56
2017-11-09T06:48:19.251Z,6.57
2017-11-09T06:50:46.863Z,6.58
2017-11-09T06:53:14.650Z,6.58
2017-11-09T06:55:42.253Z,6.60
2017-11-09T06:58:09.843Z,6.61
2017-11-09T07:00:37.476Z,6.62
2017-11-09T07:03:05.068Z,6.63
2017-11-09T07:05:32.705Z,6.63
2017-11-09T07:08:00.305Z,6.65
2017-11-09T07:10:27.985Z,6.66
2017-11-09T07:12:55.579Z,6.67
2017-11-09T07:15:23.223Z,6.69
2017-11-09T07:17:50.820Z,6.69
2017-11-09T07:20:18.539Z,6.71
2017-11-09T07:22:46.215Z,6.72
2017-11-09T07:25:13.920Z,6.73
2017-11-09T07:27:41.591Z,6.72
2017-11-09T07:30:09.310Z,6.73
2017-11-09T07:32:36.969Z,6.72
2017-11-09T07:35:04.616Z,6.73
2017-11-09T07:37:32.243Z,6.74
2017-11-09T07:39:59.879Z,6.74
2017-11-09T07:42:27.554Z,6.75
2017-11-09T07:44:55.183Z,6.74
2017-11-09T07:47:22.777Z,6.73
2017-11-09T07:49:50.419Z,6.72
2017-11-09T07:52:18.090Z,6.72
2017-11-09T07:54:45.783Z,6.73
2017-11-09T07:57:13.447Z,6.75
2017-11-09T07:59:41.147Z,6.74
2017-11-09T08:02:08.803Z,6.75
2017-11-09T08:04:36.488Z,6.75
2017-11-09T08:07:04.146Z,6.74
2017-11-09T08:09:31.903Z,6.77
2017-11-09T08:11:59.680Z,6.77
2017-11-09T08:14:27.404Z,6.79
2017-11-09T08:16:55.112Z,6.82
2017-11-09T08:19:22.780Z,6.84
2017-11-09T08:21:50.497Z,6.88
2017-11-09T08:24:19.976Z,6.92
2017-11-09T08:26:50.397Z,6.92
2017-11-09T08:29:21.061Z,6.94
2017-11-09T08:31:51.927Z,6.98
2017-11-09T08:34:19.590Z,7.00
2017-11-09T08:36:47.287Z,7.01
2017-11-09T08:39:15.006Z,7.03
2017-11-09T08:41:42.710Z,7.06
2017-11-09T08:44:10.365Z,7.08
2017-11-09T08:46:38.068Z,7.10
2017-11-09T08:49:05.740Z,7.12
2017-11-09T08:51:33.424Z,7.13
2017-11-09T08:54:01.088Z,7.14
2017-11-09T08:56:28.832Z,7.17
2017-11-09T08:58:56.491Z,7.19
2017-11-09T09:01:24.145Z,7.20
2017-11-09T09:03:51.861Z,7.18
2017-11-09T09:06:19.527Z,7.18
2017-11-09T09:08:47.257Z,7.19
2017-11-09T09:11:14.956Z,7.23
2017-11-09T09:13:42.723Z,7.24
2017-11-09T09:16:10.404Z,7.29
2017-11-09T09:18:38.111Z,7.33
2017-11-09T09:21:09.310Z,7.36
2017-11-09T09:23:37.024Z,7.36
2017-11-09T09:26:10.260Z,7.38
2017-11-09T09:28:38.008Z,7.42
2017-11-09T09:31:05.650Z,7.45
2017-11-09T09:33:36.899Z,7.48
2017-11-09T09:36:07.158Z,7.48
2017-11-09T09:38:42.304Z,7.48
2017-11-09T09:41:10.021Z,7.50
2017-11-09T09:43:37.695Z,7.50
2017-11-09T09:46:05.322Z,7.50
2017-11-09T09:48:33.005Z,7.56
2017-11-09T09:51:00.798Z,7.62
2017-11-09T09:53:28.523Z,7.65
2017-11-09T09:55:56.176Z,7.68
2017-11-09T09:58:23.880Z,7.69
2017-11-09T10:00:51.525Z,7.71
2017-11-09T10:03:19.250Z,7.77
2017-11-09T10:05:46.880Z,7.82
2017-11-09T10:08:14.539Z,7.81
2017-11-09T10:10:42.140Z,7.85
2017-11-09T10:13:09.775Z,7.85
2017-11-09T10:15:37.381Z,7.87
2017-11-09T10:18:05.021Z,7.86
2017-11-09T10:20:32.634Z,7.87
2017-11-09T10:23:00.286Z,7.90
2017-11-09T10:25:27.882Z,7.91
2017-11-09T10:27:55.564Z,7.94
2017-11-09T10:30:23.163Z,7.96
2017-11-09T10:32:50.827Z,8.00
2017-11-09T10:35:18.457Z,8.02
2017-11-09T10:37:46.055Z,8.05
2017-11-09T10:40:13.689Z,8.07
2017-11-09T10:42:41.313Z,8.08
2017-11-09T10:45:08.952Z,8.06
2017-11-09T10:47:36.576Z,8.03
2017-11-09T10:50:04.205Z,8.03
2017-11-09T10:52:31.839Z,8.07
2017-11-09T10:54:59.485Z,8.15
2017-11-09T10:57:27.097Z,8.22
2017-11-09T10:59:54.732Z,8.26
2017-11-09T11:02:22.353Z,8.29
2017-11-09T11:04:49.998Z,8.34
2017-11-09T11:07:17.620Z,8.40
2017-11-09T11:09:45.275Z,8.49
2017-11-09T11:12:12.894Z,8.57
2017-11-09T11:14:40.535Z,8.65
2017-11-09T11:17:08.156Z,8.68
2017-11-09T11:19:35.842Z,8.71
2017-11-09T11:22:07.306Z,8.70
2017-11-09T11:24:34.959Z,8.75
2017-11-09T11:27:02.641Z,8.77
2017-11-09T11:29:30.372Z,8.73
2017-11-09T11:31:58.094Z,8.71
2017-11-09T11:34:25.781Z,8.69
2017-11-09T11:36:53.460Z,8.73
2017-11-09T11:39:21.062Z,8.76
2017-11-09T11:41:48.721Z,8.79
2017-11-09T11:44:16.328Z,8.88
2017-11-09T11:46:44.104Z,9.03
2017-11-09T11:49:11.830Z,9.13
2017-11-09T11:51:39.542Z,9.16
2017-11-09T11:54:07.224Z,9.16
2017-11-09T11:56:34.932Z,9.17
2017-11-09T11:59:02.611Z,9.22
2017-11-09T12:01:30.306Z,9.25
2017-11-09T12:03:57.986Z,9.19
2017-11-09T12:06:25.650Z,9.13
2017-11-09T12:08:53.273Z,9.16
2017-11-09T12:11:20.991Z,9.15
2017-11-09T12:13:48.601Z,9.08
2017-11-09T12:16:16.301Z,9.01
2017-11-09T12:18:43.988Z,8.94
2017-11-09T12:21:11.632Z,8.90
2017-11-09T12:23:39.320Z,8.91
2017-11-09T12:26:07.028Z,8.92
2017-11-09T12:28:34.714Z,8.88
2017-11-09T12:31:03.308Z,8.85
2017-11-09T12:33:30.983Z,8.83
2017-11-09T12:35:58.647Z,8.86
2017-11-09T12:38:26.302Z,8.90
2017-11-09T12:40:54.036Z,8.93
2017-11-09T12:43:21.689Z,8.96
2017-11-09T12:45:49.370Z,8.99
2017-11-09T12:50:36.843Z,9.04
2017-11-09T12:53:04.556Z,9.11
2017-11-09T12:55:32.246Z,9.19
2017-11-09T12:58:00.000Z,9.19
2017-11-09T13:00:27.669Z,9.18
2017-11-09T13:02:55.389Z,9.17
2017-11-09T13:05:23.070Z,9.18
2017-11-09T13:07:50.734Z,9.24
2017-11-09T13:10:18.335Z,9.29
2017-11-09T13:12:46.104Z,9.35
2017-11-09T13:15:13.801Z,9.34
2017-11-09T13:17:41.517Z,9.33
2017-11-09T13:20:09.210Z,9.27
2017-11-09T13:22:36.929Z,9.21
2017-11-09T13:25:04.547Z,9.15
2017-11-09T13:27:32.295Z,9.09
2017-11-09T13:29:59.973Z,9.02
2017-11-09T13:32:27.766Z,8.99
2017-11-09T13:34:55.433Z,9.04
2017-11-09T13:37:23.152Z,9.08
2017-11-09T13:39:50.933Z,9.10
2017-11-09T13:42:18.612Z,9.02
2017-11-09T13:44:46.237Z,9.00
2017-11-09T13:47:13.899Z,9.02
2017-11-09T13:49:41.595Z,9.08
2017-11-09T13:52:09.243Z,9.13
2017-11-09T13:54:36.947Z,9.15
2017-11-09T13:57:04.619Z,9.17
2017-11-09T13:59:32.339Z,9.19
2017-11-09T14:02:00.009Z,9.16
2017-11-09T14:04:27.728Z,9.11
2017-11-09T14:06:55.323Z,9.08
2017-11-09T14:09:23.053Z,9.07
2017-11-09T14:11:50.753Z,9.05
2017-11-09T14:14:18.458Z,9.05
2017-11-09T14:16:46.093Z,9.06
2017-11-09T14:19:13.760Z,9.07
2017-11-09T14:21:41.457Z,9.04
2017-11-09T14:24:09.226Z,9.02
2017-11-09T14:26:36.875Z,9.01
2017-11-09T14:29:04.564Z,9.01
2017-11-09T14:31:32.240Z,9.00
2017-11-09T14:33:59.914Z,8.97
2017-11-09T14:36:27.612Z,8.92
2017-11-09T14:38:55.228Z,8.88
2017-11-09T14:41:22.873Z,8.85
2017-11-09T14:43:50.543Z,8.83
2017-11-09T14:46:18.189Z,8.80
2017-11-09T14:48:45.850Z,8.78
2017-11-09T14:51:13.514Z,8.75
2017-11-09T14:53:41.198Z,8.73
2017-11-09T14:56:08.908Z,8.70
2017-11-09T14:58:36.572Z,8.66
2017-11-09T15:01:04.275Z,8.65
2017-11-09T15:03:31.896Z,8.64
2017-11-09T15:05:59.642Z,8.61
2017-11-09T15:08:27.341Z,8.58
2017-11-09T15:10:55.071Z,8.55
2017-11-09T15:13:22.734Z,8.54
2017-11-09T15:15:55.321Z,8.52
2017-11-09T15:18:22.921Z,8.52
2017-11-09T15:20:50.617Z,8.51
2017-11-09T15:23:18.278Z,8.53
2017-11-09T15:25:45.968Z,8.51
2017-11-09T15:28:13.624Z,8.48
2017-11-09T15:30:41.271Z,8.47
2017-11-09T15:33:09.035Z,8.47
2017-11-09T15:35:37.638Z,8.47
2017-11-09T15:38:05.280Z,8.47
2017-11-09T15:40:33.021Z,8.46
2017-11-09T15:43:00.719Z,8.44
2017-11-09T15:45:28.406Z,8.41
2017-11-09T15:47:56.107Z,8.38
2017-11-09T15:50:24.074Z,8.38
2017-11-09T15:52:51.782Z,8.36
2017-11-09T15:55:19.424Z,8.36
2017-11-09T15:57:47.070Z,8.35
2017-11-09T16:00:14.788Z,8.33
2017-11-09T16:02:42.515Z,8.31
2017-11-09T16:05:10.197Z,8.30
2017-11-09T16:07:39.681Z,8.28
2017-11-09T16:10:07.350Z,8.26
2017-11-09T16:12:35.001Z,8.23
2017-11-09T16:15:02.684Z,8.20
2017-11-09T16:17:30.333Z,8.18
2017-11-09T16:19:57.973Z,8.15
2017-11-09T16:22:25.641Z,8.13
2017-11-09T16:24:53.390Z,8.10
2017-11-09T16:27:23.083Z,8.04
2017-11-09T16:29:50.869Z,7.99
2017-11-09T16:32:18.593Z,7.91
2017-11-09T16:34:46.318Z,7.83
2017-11-09T16:37:14.027Z,7.80
2017-11-09T16:39:41.828Z,7.73
2017-11-09T16:42:09.570Z,7.71
2017-11-09T16:44:37.306Z,7.65
2017-11-09T16:47:05.028Z,7.59
2017-11-09T16:49:32.689Z,7.53
2017-11-09T16:52:00.345Z,7.45
2017-11-09T16:54:28.040Z,7.40
2017-11-09T16:56:55.722Z,7.37
2017-11-09T16:59:23.372Z,7.31
2017-11-09T17:01:51.043Z,7.28
2017-11-09T17:04:18.737Z,7.31
2017-11-09T17:06:46.401Z,7.32
2017-11-09T17:09:14.121Z,7.35
2017-11-09T17:11:41.760Z,7.33
2017-11-09T17:14:09.415Z,7.26
2017-11-09T17:16:37.023Z,7.19
2017-11-09T17:19:04.648Z,7.17
2017-11-09T17:21:32.292Z,7.17
2017-11-09T17:23:59.899Z,7.21
2017-11-09T17:26:27.552Z,7.18
2017-11-09T17:28:55.173Z,7.17
2017-11-09T17:31:22.854Z,7.13
2017-11-09T17:33:50.472Z,7.13
2017-11-09T17:36:18.123Z,7.16
2017-11-09T17:38:45.744Z,7.14
2017-11-09T17:41:16.479Z,7.13
2017-11-09T17:43:49.100Z,7.13
2017-11-09T17:46:16.798Z,7.11
2017-11-09T17:48:44.460Z,7.07
2017-11-09T17:51:13.935Z,7.05
2017-11-09T17:53:41.548Z,7.06
2017-11-09T17:56:09.276Z,7.06
2017-11-09T17:58:37.828Z,7.06
2017-11-09T18:01:05.528Z,7.10
2017-11-09T18:03:35.031Z,7.15
2017-11-09T18:06:02.657Z,7.18
2017-11-09T18:08:30.270Z,7.27
2017-11-09T18:10:57.968Z,7.36
2017-11-09T18:13:25.575Z,7.42
2017-11-09T18:15:53.216Z,7.45
2017-11-09T18:18:20.821Z,7.48
2017-11-09T18:20:48.491Z,7.52
2017-11-09T18:23:16.085Z,7.57
2017-11-09T18:25:43.728Z,7.60
2017-11-09T18:28:11.367Z,7.63
2017-11-09T18:30:39.044Z,7.67
2017-11-09T18:33:06.652Z,7.68
2017-11-09T18:35:34.260Z,7.70
2017-11-09T18:38:01.904Z,7.71
2017-11-09T18:40:29.535Z,7.71
2017-11-09T18:42:57.160Z,7.73
2017-11-09T18:45:24.771Z,7.75
2017-11-09T18:47:52.476Z,7.76
2017-11-09T18:50:20.085Z,7.78
2017-11-09T18:52:47.738Z,7.78
2017-11-09T18:55:15.340Z,7.79
2017-11-09T18:57:43.017Z,7.81
2017-11-09T19:00:10.704Z,7.81
2017-11-09T19:02:38.485Z,7.79
2017-11-09T19:05:06.143Z,7.76
2017-11-09T19:07:33.800Z,7.75
2017-11-09T19:10:01.409Z,7.69
2017-11-09T19:12:29.073Z,7.64
2017-11-09T19:14:56.695Z,7.61
2017-11-09T19:17:24.292Z,7.61
2017-11-09T19:19:52.009Z,7.59
2017-11-09T19:22:19.622Z,7.58
2017-11-09T19:24:47.382Z,7.58
2017-11-09T19:27:15.086Z,7.57
2017-11-09T19:29:42.797Z,7.57
2017-11-09T19:32:10.551Z,7.55
2017-11-09T19:34:38.184Z,7.57
2017-11-09T19:37:05.781Z,7.59
2017-11-09T19:39:33.446Z,7.59
2017-11-09T19:42:01.037Z,7.60
2017-11-09T19:44:28.696Z,7.58
2017-11-09T19:46:56.391Z,7.59
2017-11-09T19:49:24.105Z,7.60
2017-11-09T19:51:51.738Z,7.61
2017-11-09T19:54:19.375Z,7.63
2017-11-09T19:56:46.993Z,7.65
2017-11-09T19:59:14.699Z,7.66
2017-11-09T20:01:42.367Z,7.66
2017-11-09T20:04:10.028Z,7.67
2017-11-09T20:06:37.735Z,7.70
2017-11-09T20:09:05.447Z,7.70
2017-11-09T20:11:33.166Z,7.71
2017-11-09T20:14:00.852Z,7.71
2017-11-09T20:16:28.550Z,7.71
2017-11-09T20:18:56.143Z,7.72
2017-11-09T20:21:23.857Z,7.72
2017-11-09T20:23:51.538Z,7.73
2017-11-09T20:26:19.289Z,7.68
2017-11-09T20:28:46.900Z,7.68
2017-11-09T20:31:14.616Z,7.66
2017-11-09T20:33:42.232Z,7.67
2017-11-09T20:36:09.873Z,7.63
2017-11-09T20:38:37.460Z,7.66
2017-11-09T20:41:05.117Z,7.66
2017-11-09T20:43:32.791Z,7.65
2017-11-09T20:46:00.457Z,7.66
2017-11-09T20:48:28.126Z,7.65
2017-11-09T20:50:55.779Z,7.64
2017-11-09T20:53:23.458Z,7.62
2017-11-09T20:55:51.112Z,7.61
2017-11-09T20:58:18.780Z,7.60
2017-11-09T21:00:46.430Z,7.58
2017-11-09T21:03:14.092Z,7.57
2017-11-09T21:05:41.695Z,7.56
2017-11-09T21:08:09.417Z,7.53
2017-11-09T21:10:37.087Z,7.53
2017-11-09T21:13:04.792Z,7.51
2017-11-09T21:15:32.452Z,7.51
2017-11-09T21:18:00.147Z,7.50
2017-11-09T21:20:27.752Z,7.49
2017-11-09T21:22:55.740Z,7.48
2017-11-09T21:25:23.337Z,7.48
2017-11-09T21:27:50.968Z,7.47
2017-11-09T21:30:18.573Z,7.46
2017-11-09T21:32:46.258Z,7.46
2017-11-09T21:35:13.847Z,7.45
2017-11-09T21:37:41.569Z,7.46
2017-11-09T21:40:09.158Z,7.47
2017-11-09T21:42:36.802Z,7.46
2017-11-09T21:45:04.430Z,7.47
2017-11-09T21:47:32.027Z,7.46
2017-11-09T21:49:59.709Z,7.46
2017-11-09T21:52:27.323Z,7.46
2017-11-09T21:54:55.011Z,7.45
2017-11-09T21:57:22.651Z,7.45
2017-11-09T21:59:50.364Z,7.46
2017-11-09T22:02:17.958Z,7.47
2017-11-09T22:04:45.683Z,7.46
2017-11-09T22:07:13.375Z,7.47
2017-11-09T22:09:41.087Z,7.48
2017-11-09T22:12:08.690Z,7.49
2017-11-09T22:14:36.333Z,7.50
2017-11-09T22:17:03.981Z,7.50
2017-11-09T22:19:31.629Z,7.51
2017-11-09T22:21:59.231Z,7.51
2017-11-09T22:24:26.960Z,7.53
2017-11-09T22:26:54.568Z,7.53
2017-11-09T22:29:22.202Z,7.55
2017-11-09T22:31:49.873Z,7.55
2017-11-09T22:34:18.033Z,7.55
2017-11-09T22:36:45.645Z,7.58
2017-11-09T22:39:13.328Z,7.59
2017-11-09T22:41:41.048Z,7.59
2017-11-09T22:44:08.752Z,7.59
2017-11-09T22:46:36.357Z,7.60
2017-11-09T22:49:04.083Z,7.61
2017-11-09T22:51:31.774Z,7.63
2017-11-09T22:53:59.501Z,7.64
2017-11-09T22:56:27.174Z,7.66
2017-11-09T22:58:54.846Z,7.65
2017-11-09T23:01:22.556Z,7.67
2017-11-09T23:03:50.218Z,7.68
2017-11-09T23:06:17.920Z,7.70
2017-11-09T23:08:45.582Z,7.70
2017-11-09T23:11:13.315Z,7.70
2017-11-09T23:13:40.992Z,7.70
2017-11-09T23:16:08.685Z,7.71
2017-11-09T23:18:36.358Z,7.72
2017-11-09T23:21:04.092Z,7.74
2017-11-09T23:23:31.748Z,7.74
2017-11-09T23:25:59.455Z,7.74
2017-11-09T23:28:27.728Z,7.75
2017-11-09T23:30:55.438Z,7.76
2017-11-09T23:33:23.045Z,7.77
2017-11-09T23:35:50.650Z,7.77
2017-11-09T23:38:18.350Z,7.78
2017-11-09T23:40:46.044Z,7.79
2017-11-09T23:43:13.760Z,7.80
2017-11-09T23:45:41.419Z,7.80
2017-11-09T23:48:09.121Z,7.81
2017-11-09T23:50:36.785Z,7.82
2017-11-09T23:53:04.490Z,7.83
2017-11-09T23:55:32.154Z,7.84
2017-11-09T23:57:59.810Z,7.84
